Time,TemperatureF,DewpointF,PressureIn,WindDirection,WindDirectionDegrees,WindSpeedMPH,WindSpeedGustMPH,Humidity,HourlyPrecipIn,Conditions,Clouds,dailyrainin,SoftwareType,DateUTC
2013-04-08 00:03:00,59.0,46.8,29.87,ESE,111,0.0,0.0,64,0.00,RA,,0.00,WeatherDisplay:10.37,2013-04-08 05:03:00,
2013-04-08 00:08:00,59.0,47.2,29.87,ESE,103,0.0,0.0,65,0.00,RA,,0.00,WeatherDisplay:10.37,2013-04-08 05:08:00,
2013-04-08 00:13:00,58.8,47.5,29.87,ESE,106,0.0,0.0,66,0.00,CLR,,0.00,WeatherDisplay:10.37,2013-04-08 05:13:00,
2013-04-08 00:18:00,58.7,47.4,29.87,ESE,107,0.0,0.0,66,0.00,CLR,,0.00,WeatherDisplay:10.37,2013-04-08 05:18:00,
2013-04-08 00:23:00,58.7,47.4,29.87,ESE,106,0.0,0.0,66,0.00,CLR,,0.00,WeatherDisplay:10.37,2013-04-08 05:23:00,
2013-04-08 00:29:00,58.8,47.9,29.87,ESE,112,0.0,0.0,67,0.00,CLR,,0.00,WeatherDisplay:10.37,2013-04-08 05:29:00,
2013-04-08 00:34:00,58.8,47.9,29.87,ESE,112,0.0,0.0,67,0.00,CLR,,0.00,WeatherDisplay:10.37,2013-04-08 05:34:00,
2013-04-08 00:39:00,59.0,48.4,29.87,ESE,117,0.0,0.0,68,0.00,CLR,,0.00,WeatherDisplay:10.37,2013-04-08 05:39:00,
2013-04-08 00:45:00,59.0,49.2,29.87,SE,134,3.5,0.0,70,0.00,CLR,,0.00,WeatherDisplay:10.37,2013-04-08 05:45:00,
2013-04-08 00:50:00,59.0,49.6,29.87,South,169,5.8,5.8,71,0.00,CLR,,0.00,WeatherDisplay:10.37,2013-04-08 05:50:00,
2013-04-08 00:55:00,59.0,50.0,29.87,SSE,159,1.2,1.2,72,0.00,CLR,,0.00,WeatherDisplay:10.37,2013-04-08 05:55:00,
2013-04-08 01:00:00,59.0,50.4,29.87,SSE,161,0.0,0.0,73,0.00,CLR,,0.00,WeatherDisplay:10.37,2013-04-08 06:00:00,
2013-04-08 01:05:00,59.0,50.7,29.87,SSE,150,5.8,5.8,74,0.00,CLR,,0.00,WeatherDisplay:10.37,2013-04-08 06:05:00,
2013-04-08 01:11:00,59.0,51.1,29.87,SSE,161,4.6,4.6,75,0.00,CLR,,0.00,WeatherDisplay:10.37,2013-04-08 06:11:00,
2013-04-08 01:16:00,59.0,51.1,29.87,SSE,155,4.6,4.6,75,0.00,CLR,,0.00,WeatherDisplay:10.37,2013-04-08 06:16:00,
2013-04-08 01:21:00,59.0,51.4,29.87,South,177,11.5,11.5,76,0.00,CLR,,0.00,WeatherDisplay:10.37,2013-04-08 06:21:00,
2013-04-08 01:27:00,58.6,51.8,29.87,SSE,148,11.5,11.5,78,0.00,CLR,,0.00,WeatherDisplay:10.37,2013-04-08 06:27:00,
2013-04-08 01:32:00,57.9,51.8,29.86,SSE,162,5.8,5.8,80,0.00,CLR,,0.00,WeatherDisplay:10.37,2013-04-08 06:32:00,
2013-04-08 01:37:00,57.5,51.7,29.86,South,171,10.4,10.4,81,0.00,CLR,,0.00,WeatherDisplay:10.37,2013-04-08 06:37:00,
2013-04-08 01:42:00,57.3,51.9,29.86,SSE,163,5.8,5.8,82,0.00,CLR,,0.00,WeatherDisplay:10.37,2013-04-08 06:42:00,
2013-04-08 01:47:00,57.2,52.1,29.86,South,176,6.9,6.9,83,0.00,CLR,,0.00,WeatherDisplay:10.37,2013-04-08 06:47:00,
2013-04-08 01:52:00,57.1,52.3,29.86,South,178,0.0,0.2,84,0.00,CLR,,0.00,WeatherDisplay:10.37,2013-04-08 06:52:00,
2013-04-08 01:57:00,57.0,52.2,29.86,SSE,165,4.6,4.6,84,0.00,CLR,,0.00,WeatherDisplay:10.37,2013-04-08 06:57:00,
2013-04-08 02:03:00,57.0,52.5,29.86,SSE,159,0.0,0.1,85,0.00,CLR,,0.00,WeatherDisplay:10.37,2013-04-08 07:03:00,
2013-04-08 02:08:00,56.9,52.4,29.85,SSE,167,5.8,5.8,85,0.00,CLR,,0.00,WeatherDisplay:10.37,2013-04-08 07:08:00,
2013-04-08 02:13:00,56.9,52.4,29.85,SSE,158,0.0,0.0,85,0.01,RA,,0.01,WeatherDisplay:10.37,2013-04-08 07:13:00,
2013-04-08 02:18:00,56.9,52.4,29.85,SSE,160,0.0,0.0,85,0.01,RA,,0.01,WeatherDisplay:10.37,2013-04-08 07:18:00,
2013-04-08 02:24:00,56.9,52.8,29.84,SE,141,3.5,3.5,86,0.02,RA,,0.02,WeatherDisplay:10.37,2013-04-08 07:24:00,
2013-04-08 02:29:00,56.9,52.8,29.84,SSE,148,0.0,0.0,86,0.02,RA,,0.02,WeatherDisplay:10.37,2013-04-08 07:29:00,
2013-04-08 02:34:00,57.0,53.2,29.83,SSE,161,2.3,0.0,87,0.03,RA,,0.03,WeatherDisplay:10.37,2013-04-08 07:34:00,
2013-04-08 02:40:00,57.1,53.3,29.83,SE,130,0.0,0.0,87,0.03,,,0.03,WeatherDisplay:10.37,2013-04-08 07:40:00,
2013-04-08 02:45:00,57.1,53.3,29.83,ESE,117,0.0,0.0,87,0.03,CLR,,0.03,WeatherDisplay:10.37,2013-04-08 07:45:00,
2013-04-08 02:50:00,57.2,53.4,29.82,ESE,105,3.5,0.0,87,0.04,RA,,0.04,WeatherDisplay:10.37,2013-04-08 07:50:00,
2013-04-08 02:55:00,57.2,53.7,29.82,SE,128,3.5,0.0,88,0.04,RA,,0.04,WeatherDisplay:10.37,2013-04-08 07:55:00,
2013-04-08 03:00:00,57.2,53.7,29.82,ESE,119,3.5,3.5,88,0.04,CLR,,0.04,WeatherDisplay:10.37,2013-04-08 08:00:00,
2013-04-08 03:05:00,57.1,53.6,29.82,SSE,161,3.5,3.5,88,0.04,CLR,,0.04,WeatherDisplay:10.37,2013-04-08 08:05:00,
2013-04-08 03:11:00,57.1,53.6,29.82,ESE,119,1.2,1.2,88,0.04,CLR,,0.04,WeatherDisplay:10.37,2013-04-08 08:11:00,
2013-04-08 03:16:00,57.1,53.6,29.82,SSE,159,0.0,0.0,88,0.03,CLR,,0.04,WeatherDisplay:10.37,2013-04-08 08:16:00,
2013-04-08 03:21:00,57.0,53.5,29.81,ESE,119,4.6,0.0,88,0.02,CLR,,0.04,WeatherDisplay:10.37,2013-04-08 08:21:00,
2013-04-08 03:26:00,57.0,53.5,29.81,ESE,114,5.8,5.8,88,0.02,CLR,,0.04,WeatherDisplay:10.37,2013-04-08 08:26:00,
2013-04-08 03:31:00,56.9,53.4,29.81,SE,134,0.0,0.1,88,0.01,CLR,,0.04,WeatherDisplay:10.37,2013-04-08 08:31:00,
2013-04-08 03:37:00,57.0,53.8,29.81,SSE,148,5.8,5.8,89,0.01,CLR,,0.04,WeatherDisplay:10.37,2013-04-08 08:37:00,
2013-04-08 03:42:00,57.1,53.9,29.81,SE,146,4.6,4.6,89,0.01,CLR,,0.04,WeatherDisplay:10.37,2013-04-08 08:42:00,
2013-04-08 03:47:00,57.2,54.0,29.81,SE,132,3.5,3.5,89,0.00,CLR,,0.04,WeatherDisplay:10.37,2013-04-08 08:47:00,
2013-04-08 03:52:00,57.3,53.8,29.80,SSE,159,6.9,6.9,88,0.00,CLR,,0.04,WeatherDisplay:10.37,2013-04-08 08:52:00,
2013-04-08 03:57:00,57.3,53.8,29.80,SSE,149,12.7,12.7,88,0.00,CLR,,0.04,WeatherDisplay:10.37,2013-04-08 08:57:00,
2013-04-08 04:02:00,57.5,54.0,29.80,SSE,148,5.8,5.8,88,0.00,CLR,,0.04,WeatherDisplay:10.37,2013-04-08 09:02:00,
2013-04-08 04:07:00,57.5,54.0,29.79,SSE,161,5.8,5.8,88,0.00,CLR,,0.04,WeatherDisplay:10.37,2013-04-08 09:07:00,
2013-04-08 04:13:00,57.6,54.1,29.79,South,183,6.0,6.0,88,0.00,CLR,,0.04,WeatherDisplay:10.37,2013-04-08 09:13:00,
2013-04-08 04:18:00,57.7,53.9,29.78,SSE,159,11.5,11.5,87,0.00,CLR,,0.04,WeatherDisplay:10.37,2013-04-08 09:18:00,
2013-04-08 04:23:00,57.8,54.0,29.78,SSE,157,4.6,4.6,87,0.00,CLR,,0.04,WeatherDisplay:10.37,2013-04-08 09:23:00,
2013-04-08 04:28:00,57.8,53.6,29.78,SE,140,5.8,5.8,86,0.00,CLR,,0.04,WeatherDisplay:10.37,2013-04-08 09:28:00,
2013-04-08 04:33:00,57.8,53.6,29.78,SE,142,6.9,6.9,86,0.00,CLR,,0.04,WeatherDisplay:10.37,2013-04-08 09:33:00,
2013-04-08 04:38:00,57.7,53.5,29.79,South,172,10.4,10.4,86,0.00,CLR,,0.04,WeatherDisplay:10.37,2013-04-08 09:38:00,
2013-04-08 04:43:00,57.7,53.2,29.79,SSE,161,6.9,6.9,85,0.00,CLR,,0.04,WeatherDisplay:10.37,2013-04-08 09:43:00,
2013-04-08 04:49:00,57.7,53.2,29.79,South,173,4.6,4.6,85,0.00,CLR,,0.04,WeatherDisplay:10.37,2013-04-08 09:49:00,
2013-04-08 04:54:00,57.8,53.3,29.79,South,177,10.4,10.4,85,0.00,CLR,,0.04,WeatherDisplay:10.37,2013-04-08 09:54:00,
2013-04-08 04:59:00,57.9,53.1,29.79,SE,146,9.2,9.2,84,0.00,CLR,,0.04,WeatherDisplay:10.37,2013-04-08 09:59:00,
2013-04-08 05:05:00,57.9,53.1,29.78,SSE,164,10.4,10.4,84,0.00,CLR,,0.04,WeatherDisplay:10.37,2013-04-08 10:05:00,
2013-04-08 05:10:00,58.0,52.9,29.78,SE,137,7.0,7.0,83,0.00,CLR,,0.04,WeatherDisplay:10.37,2013-04-08 10:10:00,
2013-04-08 05:15:00,58.0,52.9,29.79,SSE,153,9.2,9.2,83,0.00,CLR,,0.04,WeatherDisplay:10.37,2013-04-08 10:15:00,
2013-04-08 05:20:00,58.0,52.9,29.79,South,173,11.5,11.5,83,0.00,CLR,,0.04,WeatherDisplay:10.37,2013-04-08 10:20:00,
2013-04-08 05:26:00,57.8,52.7,29.79,SE,141,8.1,8.1,83,0.00,CLR,,0.04,WeatherDisplay:10.37,2013-04-08 10:26:00,
2013-04-08 05:31:00,57.7,52.6,29.79,South,172,11.5,11.5,83,0.00,CLR,,0.04,WeatherDisplay:10.37,2013-04-08 10:31:00,
2013-04-08 05:36:00,57.6,52.8,29.79,SSE,163,15.0,15.0,84,0.00,CLR,,0.04,WeatherDisplay:10.37,2013-04-08 10:36:00,
2013-04-08 05:41:00,57.5,52.7,29.78,SSE,164,9.2,9.2,84,0.00,CLR,,0.04,WeatherDisplay:10.37,2013-04-08 10:41:00,
2013-04-08 05:47:00,57.3,52.5,29.78,SSW,194,12.0,12.0,84,0.00,CLR,,0.04,WeatherDisplay:10.37,2013-04-08 10:47:00,
2013-04-08 05:52:00,57.2,52.4,29.78,SSE,150,14.0,14.0,84,0.00,CLR,,0.04,WeatherDisplay:10.37,2013-04-08 10:52:00,
2013-04-08 05:57:00,57.2,52.7,29.78,South,183,11.0,11.0,85,0.00,CLR,,0.04,WeatherDisplay:10.37,2013-04-08 10:57:00,
2013-04-08 06:02:00,57.2,52.7,29.78,SSE,161,8.1,8.1,85,0.00,CLR,,0.04,WeatherDisplay:10.37,2013-04-08 11:02:00,
2013-04-08 06:07:00,57.3,52.8,29.78,SE,138,11.5,11.5,85,0.00,CLR,,0.04,WeatherDisplay:10.37,2013-04-08 11:07:00,
2013-04-08 06:12:00,57.2,52.7,29.77,SE,134,19.6,19.6,85,0.00,CLR,,0.04,WeatherDisplay:10.37,2013-04-08 11:12:00,
2013-04-08 06:18:00,57.2,52.7,29.77,South,184,9.2,9.2,85,0.00,CLR,,0.04,WeatherDisplay:10.37,2013-04-08 11:18:00,
2013-04-08 06:23:00,57.3,52.5,29.77,SE,144,10.4,10.4,84,0.00,CLR,,0.04,WeatherDisplay:10.37,2013-04-08 11:23:00,
2013-04-08 06:28:00,57.4,52.6,29.76,SE,125,12.7,12.7,84,0.00,CLR,,0.04,WeatherDisplay:10.37,2013-04-08 11:28:00,
2013-04-08 06:33:00,57.4,52.6,29.76,SSE,160,11.5,11.5,84,0.00,CLR,,0.04,WeatherDisplay:10.37,2013-04-08 11:33:00,
2013-04-08 06:39:00,57.5,52.4,29.76,SSE,160,17.3,17.3,83,0.00,CLR,,0.04,WeatherDisplay:10.37,2013-04-08 11:39:00,
2013-04-08 06:44:00,57.7,52.6,29.76,SSE,159,15.0,15.0,83,0.00,CLR,,0.04,WeatherDisplay:10.37,2013-04-08 11:44:00,
2013-04-08 06:49:00,57.7,52.6,29.76,SE,141,11.5,11.5,83,0.00,CLR,,0.04,WeatherDisplay:10.37,2013-04-08 11:49:00,
2013-04-08 06:54:00,57.7,52.2,29.75,South,183,10.0,10.0,82,0.00,CLR,,0.04,WeatherDisplay:10.37,2013-04-08 11:54:00,
2013-04-08 06:59:00,57.8,52.3,29.75,SSE,167,12.7,12.7,82,0.00,CLR,,0.04,WeatherDisplay:10.37,2013-04-08 11:59:00,
2013-04-08 07:05:00,58.0,52.5,29.75,SSE,153,18.4,18.4,82,0.00,CLR,,0.04,WeatherDisplay:10.37,2013-04-08 12:05:00,
2013-04-08 07:10:00,58.1,52.3,29.74,South,174,12.7,12.7,81,0.00,CLR,,0.04,WeatherDisplay:10.37,2013-04-08 12:10:00,
2013-04-08 07:15:00,58.0,52.2,29.73,South,171,12.7,12.7,81,0.00,CLR,,0.04,WeatherDisplay:10.37,2013-04-08 12:15:00,
2013-04-08 07:21:00,58.0,52.2,29.73,South,169,15.0,15.0,81,0.00,CLR,,0.04,WeatherDisplay:10.37,2013-04-08 12:21:00,
2013-04-08 07:26:00,58.1,52.3,29.73,South,184,16.1,16.1,81,0.00,CLR,,0.04,WeatherDisplay:10.37,2013-04-08 12:26:00,
2013-04-08 07:31:00,58.2,52.1,29.74,South,171,17.3,17.3,80,0.00,CLR,,0.04,WeatherDisplay:10.37,2013-04-08 12:31:00,
2013-04-08 07:36:00,58.1,52.0,29.74,SSE,163,19.6,19.6,80,0.00,CLR,,0.04,WeatherDisplay:10.37,2013-04-08 12:36:00,
2013-04-08 07:41:00,58.1,52.0,29.74,ESE,121,17.3,17.3,80,0.00,CLR,,0.04,WeatherDisplay:10.37,2013-04-08 12:41:00,
2013-04-08 07:47:00,58.2,52.4,29.74,SSE,161,13.8,13.8,81,0.00,CLR,,0.04,WeatherDisplay:10.37,2013-04-08 12:47:00,
2013-04-08 07:52:00,58.3,52.2,29.74,SSE,163,13.8,13.8,80,0.00,CLR,,0.04,WeatherDisplay:10.37,2013-04-08 12:52:00,
2013-04-08 07:57:00,58.5,52.4,29.74,South,172,15.0,15.0,80,0.00,CLR,,0.04,WeatherDisplay:10.37,2013-04-08 12:57:00,
2013-04-08 08:02:00,58.9,52.7,29.74,SE,142,19.6,19.6,80,0.00,CLR,,0.04,WeatherDisplay:10.37,2013-04-08 13:02:00,
2013-04-08 08:07:00,59.0,52.5,29.74,SSE,148,13.8,13.8,79,0.00,CLR,,0.04,WeatherDisplay:10.37,2013-04-08 13:07:00,
2013-04-08 08:12:00,59.0,52.1,29.74,South,181,15.0,15.0,78,0.00,CLR,,0.04,WeatherDisplay:10.37,2013-04-08 13:12:00,
2013-04-08 08:17:00,59.3,52.4,29.74,South,169,16.1,16.1,78,0.00,CLR,,0.04,WeatherDisplay:10.37,2013-04-08 13:17:00,
2013-04-08 08:23:00,59.6,52.7,29.75,South,172,13.8,13.8,78,0.00,CLR,,0.04,WeatherDisplay:10.37,2013-04-08 13:23:00,
2013-04-08 08:28:00,59.9,53.0,29.74,South,172,17.3,17.3,78,0.00,CLR,,0.04,WeatherDisplay:10.37,2013-04-08 13:28:00,
2013-04-08 08:33:00,60.4,53.2,29.75,SSW,198,19.6,19.6,77,0.00,CLR,,0.04,WeatherDisplay:10.37,2013-04-08 13:33:00,
2013-04-08 08:38:00,60.7,53.4,29.75,SSW,206,19.6,19.6,77,0.00,CLR,,0.04,WeatherDisplay:10.37,2013-04-08 13:38:00,
2013-04-08 08:43:00,60.8,53.2,29.75,SE,146,19.6,19.6,76,0.00,CLR,,0.04,WeatherDisplay:10.37,2013-04-08 13:43:00,
2013-04-08 08:48:00,60.9,53.3,29.74,SSW,203,26.5,26.5,76,0.00,CLR,,0.04,WeatherDisplay:10.37,2013-04-08 13:48:00,
2013-04-08 08:54:00,61.1,53.5,29.75,West,260,19.6,19.6,76,0.00,CLR,,0.04,WeatherDisplay:10.37,2013-04-08 13:54:00,
2013-04-08 08:59:00,61.4,53.8,29.74,SSW,206,13.8,13.8,76,0.00,CLR,,0.04,WeatherDisplay:10.37,2013-04-08 13:59:00,
2013-04-08 09:04:00,61.7,53.7,29.74,SW,221,19.6,19.6,75,0.00,CLR,,0.04,WeatherDisplay:10.37,2013-04-08 14:04:00,
2013-04-08 09:09:00,62.1,54.1,29.74,SSW,209,14.0,14.0,75,0.00,CLR,,0.04,WeatherDisplay:10.37,2013-04-08 14:09:00,
2013-04-08 09:14:00,62.3,53.9,29.75,SSW,205,19.6,19.6,74,0.00,CLR,,0.04,WeatherDisplay:10.37,2013-04-08 14:14:00,
2013-04-08 09:19:00,62.6,54.6,29.75,SW,225,23.0,23.0,75,0.00,CLR,,0.04,WeatherDisplay:10.37,2013-04-08 14:19:00,
2013-04-08 09:24:00,63.0,54.6,29.74,South,177,24.2,24.2,74,0.00,CLR,,0.04,WeatherDisplay:10.37,2013-04-08 14:24:00,
2013-04-08 09:29:00,63.2,54.8,29.74,South,179,12.7,12.7,74,0.00,CLR,,0.04,WeatherDisplay:10.37,2013-04-08 14:29:00,
2013-04-08 09:35:00,63.4,55.0,29.74,South,190,17.3,17.3,74,0.00,CLR,,0.04,WeatherDisplay:10.37,2013-04-08 14:35:00,
2013-04-08 09:40:00,63.7,54.9,29.74,SW,221,16.1,16.1,73,0.00,CLR,,0.04,WeatherDisplay:10.37,2013-04-08 14:40:00,
2013-04-08 09:45:00,63.7,54.9,29.74,SW,232,19.6,19.6,73,0.00,CLR,,0.04,WeatherDisplay:10.37,2013-04-08 14:45:00,
2013-04-08 09:50:00,63.6,54.8,29.75,SSW,209,18.4,18.4,73,0.00,CLR,,0.04,WeatherDisplay:10.37,2013-04-08 14:50:00,
2013-04-08 09:56:00,63.7,54.9,29.75,SW,217,20.7,20.7,73,0.00,CLR,,0.04,WeatherDisplay:10.37,2013-04-08 14:56:00,
2013-04-08 10:01:00,63.8,55.0,29.75,SW,232,18.4,18.4,73,0.00,CLR,,0.04,WeatherDisplay:10.37,2013-04-08 15:01:00,
2013-04-08 10:06:00,64.0,55.2,29.76,SW,225,13.8,13.8,73,0.00,CLR,,0.04,WeatherDisplay:10.37,2013-04-08 15:06:00,
2013-04-08 10:11:00,64.5,55.7,29.76,SSW,203,18.4,18.4,73,0.00,CLR,,0.04,WeatherDisplay:10.37,2013-04-08 15:11:00,
2013-04-08 10:16:00,65.2,56.3,29.76,SW,232,15.0,15.0,73,0.00,CLR,,0.04,WeatherDisplay:10.37,2013-04-08 15:16:00,
2013-04-08 10:21:00,65.5,56.2,29.76,SW,214,16.1,16.1,72,0.00,CLR,,0.04,WeatherDisplay:10.37,2013-04-08 15:21:00,
2013-04-08 10:27:00,65.9,55.8,29.77,SW,231,22.0,22.0,70,0.00,CLR,,0.04,WeatherDisplay:10.37,2013-04-08 15:27:00,
2013-04-08 10:32:00,66.1,55.6,29.77,SW,233,19.6,19.6,69,0.00,CLR,,0.04,WeatherDisplay:10.37,2013-04-08 15:32:00,
2013-04-08 10:37:00,66.1,55.6,29.76,SW,221,25.3,25.3,69,0.00,CLR,,0.04,WeatherDisplay:10.37,2013-04-08 15:37:00,
2013-04-08 10:42:00,66.1,56.0,29.77,SSW,198,18.4,18.4,70,0.00,CLR,,0.04,WeatherDisplay:10.37,2013-04-08 15:42:00,
2013-04-08 10:47:00,66.3,56.2,29.77,WSW,246,19.6,19.6,70,0.00,CLR,,0.04,WeatherDisplay:10.37,2013-04-08 15:47:00,
2013-04-08 10:52:00,66.6,56.1,29.77,SW,230,19.6,19.6,69,0.00,CLR,,0.04,WeatherDisplay:10.37,2013-04-08 15:52:00,
2013-04-08 10:57:00,66.9,56.4,29.77,SSW,213,17.0,17.0,69,0.00,CLR,,0.04,WeatherDisplay:10.37,2013-04-08 15:57:00,
2013-04-08 11:02:00,67.3,56.8,29.78,West,281,23.0,23.0,69,0.00,CLR,,0.04,WeatherDisplay:10.37,2013-04-08 16:02:00,
2013-04-08 11:07:00,67.3,56.8,29.78,SW,232,16.1,16.1,69,0.00,CLR,,0.04,WeatherDisplay:10.37,2013-04-08 16:07:00,
2013-04-08 11:12:00,67.0,56.5,29.78,WSW,237,23.0,23.0,69,0.00,CLR,,0.04,WeatherDisplay:10.37,2013-04-08 16:12:00,
2013-04-08 11:18:00,67.3,56.8,29.78,SW,236,13.8,13.8,69,0.00,CLR,,0.04,WeatherDisplay:10.37,2013-04-08 16:18:00,
2013-04-08 11:23:00,67.7,57.2,29.78,WSW,246,19.6,19.6,69,0.00,CLR,,0.04,WeatherDisplay:10.37,2013-04-08 16:23:00,
2013-04-08 11:28:00,67.5,57.0,29.78,WSW,249,17.3,17.3,69,0.00,CLR,,0.04,WeatherDisplay:10.37,2013-04-08 16:28:00,
2013-04-08 11:34:00,67.6,57.1,29.79,West,264,18.4,18.4,69,0.00,CLR,,0.04,WeatherDisplay:10.37,2013-04-08 16:34:00,
2013-04-08 11:39:00,67.6,57.1,29.79,WSW,238,21.9,21.9,69,0.00,CLR,,0.04,WeatherDisplay:10.37,2013-04-08 16:39:00,
2013-04-08 11:44:00,67.7,56.8,29.79,WSW,249,18.4,18.4,68,0.00,CLR,,0.04,WeatherDisplay:10.37,2013-04-08 16:44:00,
2013-04-08 11:49:00,67.8,57.3,29.79,SW,233,21.9,21.9,69,0.00,CLR,,0.04,WeatherDisplay:10.37,2013-04-08 16:49:00,
2013-04-08 11:54:00,67.9,56.9,29.79,WSW,253,19.6,19.6,68,0.00,CLR,,0.04,WeatherDisplay:10.37,2013-04-08 16:54:00,
2013-04-08 11:59:00,67.9,56.9,29.79,WSW,254,23.0,23.0,68,0.00,CLR,,0.04,WeatherDisplay:10.37,2013-04-08 16:59:00,
2013-04-08 12:04:00,68.1,57.5,29.79,West,268,18.4,18.4,69,0.00,CLR,,0.04,WeatherDisplay:10.37,2013-04-08 17:04:00,
2013-04-08 12:09:00,68.4,57.4,29.79,WSW,243,19.6,19.6,68,0.00,CLR,,0.04,WeatherDisplay:10.37,2013-04-08 17:09:00,
2013-04-08 12:14:00,68.8,57.4,29.79,SSW,213,22.0,22.0,67,0.00,CLR,,0.04,WeatherDisplay:10.37,2013-04-08 17:14:00,
2013-04-08 12:20:00,68.7,57.7,29.79,SSW,213,19.6,19.6,68,0.00,CLR,,0.04,WeatherDisplay:10.37,2013-04-08 17:20:00,
2013-04-08 12:25:00,68.9,57.9,29.79,WSW,238,11.5,11.5,68,0.00,CLR,,0.04,WeatherDisplay:10.37,2013-04-08 17:25:00,
2013-04-08 12:30:00,68.8,57.4,29.79,WSW,252,19.6,19.6,67,0.00,CLR,,0.04,WeatherDisplay:10.37,2013-04-08 17:30:00,
2013-04-08 12:35:00,68.8,57.8,29.79,SW,233,11.5,11.5,68,0.00,CLR,,0.04,WeatherDisplay:10.37,2013-04-08 17:35:00,
2013-04-08 12:40:00,69.2,57.8,29.79,SSW,209,19.6,19.6,67,0.00,CLR,,0.04,WeatherDisplay:10.37,2013-04-08 17:40:00,
2013-04-08 12:46:00,68.9,57.5,29.79,SW,236,11.5,11.5,67,0.00,CLR,,0.04,WeatherDisplay:10.37,2013-04-08 17:46:00,
2013-04-08 12:51:00,69.0,57.6,29.79,WNW,298,18.4,18.4,67,0.00,CLR,,0.04,WeatherDisplay:10.37,2013-04-08 17:51:00,
2013-04-08 12:56:00,69.3,57.5,29.79,WSW,242,12.0,12.0,66,0.00,CLR,,0.04,WeatherDisplay:10.37,2013-04-08 17:56:00,
2013-04-08 13:01:00,69.4,58.0,29.79,WSW,250,17.3,17.3,67,0.00,CLR,,0.04,WeatherDisplay:10.37,2013-04-08 18:01:00,
2013-04-08 13:07:00,69.6,57.7,29.79,West,268,11.5,11.5,66,0.00,CLR,,0.04,WeatherDisplay:10.37,2013-04-08 18:07:00,
2013-04-08 13:12:00,69.8,57.9,29.78,West,281,13.8,13.8,66,0.00,CLR,,0.04,WeatherDisplay:10.37,2013-04-08 18:12:00,
2013-04-08 13:17:00,70.8,58.4,29.79,West,264,17.3,17.3,65,0.00,CLR,,0.04,WeatherDisplay:10.37,2013-04-08 18:17:00,
2013-04-08 13:22:00,70.9,58.1,29.78,SW,219,15.0,15.0,64,0.00,CLR,,0.04,WeatherDisplay:10.37,2013-04-08 18:22:00,
2013-04-08 13:28:00,70.8,58.0,29.78,West,269,10.4,10.4,64,0.00,CLR,,0.04,WeatherDisplay:10.37,2013-04-08 18:28:00,
2013-04-08 13:33:00,70.8,58.0,29.79,West,267,11.5,11.5,64,0.00,CLR,,0.04,WeatherDisplay:10.37,2013-04-08 18:33:00,
2013-04-08 13:38:00,70.9,57.7,29.79,West,261,16.1,16.1,63,0.00,CLR,,0.04,WeatherDisplay:10.37,2013-04-08 18:38:00,
2013-04-08 13:44:00,71.9,58.6,29.78,WSW,238,13.0,13.0,63,0.00,CLR,,0.04,WeatherDisplay:10.37,2013-04-08 18:44:00,
2013-04-08 13:49:00,72.0,58.3,29.78,WSW,254,13.8,13.8,62,0.00,CLR,,0.04,WeatherDisplay:10.37,2013-04-08 18:49:00,
2013-04-08 13:54:00,72.2,58.0,29.78,WSW,246,11.5,11.5,61,0.00,CLR,,0.04,WeatherDisplay:10.37,2013-04-08 18:54:00,
2013-04-08 14:00:00,71.9,57.3,29.78,West,271,13.8,13.8,60,0.00,CLR,,0.04,WeatherDisplay:10.37,2013-04-08 19:00:00,
2013-04-08 14:05:00,72.1,57.0,29.78,West,270,13.8,13.8,59,0.00,CLR,,0.04,WeatherDisplay:10.37,2013-04-08 19:05:00,
2013-04-08 14:10:00,72.7,58.0,29.78,WNW,283,15.0,15.0,60,0.00,CLR,,0.04,WeatherDisplay:10.37,2013-04-08 19:10:00,
2013-04-08 14:15:00,73.5,58.3,29.78,West,281,10.0,10.0,59,0.00,CLR,,0.04,WeatherDisplay:10.37,2013-04-08 19:15:00,
2013-04-08 14:21:00,73.1,57.9,29.78,SW,220,16.1,16.1,59,0.00,CLR,,0.04,WeatherDisplay:10.37,2013-04-08 19:21:00,
2013-04-08 14:26:00,73.3,58.6,29.78,WSW,256,11.5,11.5,60,0.00,CLR,,0.04,WeatherDisplay:10.37,2013-04-08 19:26:00,
2013-04-08 14:31:00,73.2,57.5,29.78,WSW,243,12.7,12.7,58,0.00,CLR,,0.04,WeatherDisplay:10.37,2013-04-08 19:31:00,
2013-04-08 14:36:00,72.8,58.1,29.78,WSW,244,5.8,5.8,60,0.00,CLR,,0.04,WeatherDisplay:10.37,2013-04-08 19:36:00,
2013-04-08 14:42:00,73.0,57.8,29.77,West,279,11.5,11.5,59,0.00,CLR,,0.04,WeatherDisplay:10.37,2013-04-08 19:42:00,
2013-04-08 14:47:00,73.5,58.3,29.77,WNW,291,5.8,5.8,59,0.00,CLR,,0.04,WeatherDisplay:10.37,2013-04-08 19:47:00,
2013-04-08 14:52:00,74.1,58.4,29.78,NW,306,15.0,15.0,58,0.00,CLR,,0.04,WeatherDisplay:10.37,2013-04-08 19:52:00,
2013-04-08 14:58:00,74.0,57.8,29.78,WSW,242,11.5,11.5,57,0.00,CLR,,0.04,WeatherDisplay:10.37,2013-04-08 19:58:00,
2013-04-08 15:03:00,73.6,57.9,29.78,WNW,291,10.4,10.4,58,0.00,CLR,,0.04,WeatherDisplay:10.37,2013-04-08 20:03:00,
2013-04-08 15:08:00,73.0,57.8,29.79,West,281,9.2,9.2,59,0.00,CLR,,0.04,WeatherDisplay:10.37,2013-04-08 20:08:00,
2013-04-08 15:13:00,73.0,57.8,29.78,NW,315,6.9,6.9,59,0.00,CLR,,0.04,WeatherDisplay:10.37,2013-04-08 20:13:00,
2013-04-08 15:18:00,73.0,57.8,29.78,WSW,249,6.9,6.9,59,0.00,CLR,,0.04,WeatherDisplay:10.37,2013-04-08 20:18:00,
2013-04-08 15:23:00,72.9,57.7,29.77,WSW,254,5.8,5.8,59,0.00,CLR,,0.04,WeatherDisplay:10.37,2013-04-08 20:23:00,
2013-04-08 15:29:00,73.4,58.2,29.77,West,273,3.5,3.5,59,0.00,CLR,,0.04,WeatherDisplay:10.37,2013-04-08 20:29:00,
2013-04-08 15:34:00,74.0,58.3,29.77,WSW,238,4.6,4.6,58,0.00,CLR,,0.04,WeatherDisplay:10.37,2013-04-08 20:34:00,
2013-04-08 15:39:00,74.0,58.3,29.77,SSW,200,8.1,8.1,58,0.00,CLR,,0.04,WeatherDisplay:10.37,2013-04-08 20:39:00,
2013-04-08 15:44:00,73.6,58.4,29.77,West,268,4.6,4.6,59,0.00,CLR,,0.04,WeatherDisplay:10.37,2013-04-08 20:44:00,
2013-04-08 15:49:00,73.5,58.3,29.77,WSW,246,9.0,9.0,59,0.00,CLR,,0.04,WeatherDisplay:10.37,2013-04-08 20:49:00,
2013-04-08 15:55:00,73.4,58.2,29.78,WSW,250,6.0,6.0,59,0.00,CLR,,0.04,WeatherDisplay:10.37,2013-04-08 20:55:00,
2013-04-08 16:00:00,73.1,57.9,29.78,WSW,250,4.6,4.6,59,0.00,CLR,,0.04,WeatherDisplay:10.37,2013-04-08 21:00:00,
2013-04-08 16:05:00,73.0,58.3,29.78,West,269,3.5,3.5,60,0.00,CLR,,0.04,WeatherDisplay:10.37,2013-04-08 21:05:00,
2013-04-08 16:10:00,72.9,58.2,29.78,WSW,248,4.6,0.0,60,0.00,CLR,,0.04,WeatherDisplay:10.37,2013-04-08 21:10:00,
2013-04-08 16:15:00,72.8,58.6,29.78,WSW,246,5.0,5.0,61,0.00,CLR,,0.04,WeatherDisplay:10.37,2013-04-08 21:15:00,
2013-04-08 16:21:00,72.6,59.3,29.79,SW,225,11.5,11.5,63,0.00,CLR,,0.04,WeatherDisplay:10.37,2013-04-08 21:21:00,
2013-04-08 16:26:00,72.5,59.2,29.78,SW,232,11.5,11.5,63,0.00,CLR,,0.04,WeatherDisplay:10.37,2013-04-08 21:26:00,
2013-04-08 16:31:00,72.7,59.4,29.78,SW,234,11.5,11.5,63,0.00,CLR,,0.04,WeatherDisplay:10.37,2013-04-08 21:31:00,
2013-04-08 16:37:00,72.8,59.5,29.79,SW,229,11.5,11.5,63,0.00,CLR,,0.04,WeatherDisplay:10.37,2013-04-08 21:37:00,
2013-04-08 16:42:00,72.8,59.9,29.79,SW,221,13.8,13.8,64,0.00,CLR,,0.04,WeatherDisplay:10.37,2013-04-08 21:42:00,
2013-04-08 16:47:00,72.7,59.4,29.79,SW,226,10.4,10.4,63,0.00,CLR,,0.04,WeatherDisplay:10.37,2013-04-08 21:47:00,
2013-04-08 16:52:00,72.9,59.6,29.79,WSW,242,10.4,10.4,63,0.00,CLR,,0.04,WeatherDisplay:10.37,2013-04-08 21:52:00,
2013-04-08 16:57:00,72.9,59.1,29.79,SW,229,11.5,11.5,62,0.00,CLR,,0.04,WeatherDisplay:10.37,2013-04-08 21:57:00,
2013-04-08 17:02:00,72.7,58.9,29.80,SW,231,9.2,9.2,62,0.00,CLR,,0.04,WeatherDisplay:10.37,2013-04-08 22:02:00,
2013-04-08 17:07:00,72.5,59.6,29.80,SSE,163,9.2,9.2,64,0.00,CLR,,0.04,WeatherDisplay:10.37,2013-04-08 22:07:00,
2013-04-08 17:12:00,72.0,60.0,29.80,SSW,195,11.5,11.5,66,0.00,CLR,,0.04,WeatherDisplay:10.37,2013-04-08 22:12:00,
2013-04-08 17:17:00,71.7,59.7,29.80,SSE,155,15.0,15.0,66,0.00,CLR,,0.04,WeatherDisplay:10.37,2013-04-08 22:17:00,
2013-04-08 17:22:00,71.7,59.7,29.80,SW,218,12.0,12.0,66,0.00,CLR,,0.04,WeatherDisplay:10.37,2013-04-08 22:22:00,
2013-04-08 17:28:00,71.6,59.6,29.81,South,189,13.8,13.8,66,0.00,CLR,,0.04,WeatherDisplay:10.37,2013-04-08 22:28:00,
2013-04-08 17:33:00,71.7,59.7,29.81,SW,215,10.4,10.4,66,0.00,CLR,,0.04,WeatherDisplay:10.37,2013-04-08 22:33:00,
2013-04-08 17:38:00,71.6,59.6,29.82,SSW,207,11.5,11.5,66,0.00,CLR,,0.04,WeatherDisplay:10.37,2013-04-08 22:38:00,
2013-04-08 17:43:00,71.5,59.5,29.82,SW,230,18.4,18.4,66,0.00,CLR,,0.04,WeatherDisplay:10.37,2013-04-08 22:43:00,
2013-04-08 17:48:00,71.3,59.4,29.82,SW,223,15.0,15.0,66,0.00,CLR,,0.04,WeatherDisplay:10.37,2013-04-08 22:48:00,
2013-04-08 17:53:00,71.3,59.4,29.82,SW,219,13.8,13.8,66,0.00,CLR,,0.04,WeatherDisplay:10.37,2013-04-08 22:53:00,
2013-04-08 17:58:00,71.3,59.4,29.82,South,174,12.7,12.7,66,0.00,CLR,,0.04,WeatherDisplay:10.37,2013-04-08 22:58:00,
2013-04-08 18:04:00,71.0,59.5,29.82,SW,219,12.7,12.7,67,0.00,CLR,,0.04,WeatherDisplay:10.37,2013-04-08 23:04:00,
2013-04-08 18:09:00,70.8,59.3,29.82,SW,222,13.8,13.8,67,0.00,CLR,,0.04,WeatherDisplay:10.37,2013-04-08 23:09:00,
2013-04-08 18:14:00,70.8,59.3,29.82,SW,221,19.6,19.6,67,0.00,CLR,,0.04,WeatherDisplay:10.37,2013-04-08 23:14:00,
2013-04-08 18:19:00,70.7,59.2,29.82,WSW,237,17.3,17.3,67,0.00,CLR,,0.04,WeatherDisplay:10.37,2013-04-08 23:19:00,
2013-04-08 18:24:00,70.4,58.9,29.83,SW,220,17.3,17.3,67,0.00,CLR,,0.04,WeatherDisplay:10.37,2013-04-08 23:24:00,
2013-04-08 18:29:00,70.2,59.1,29.83,SW,218,17.3,17.3,68,0.00,CLR,,0.04,WeatherDisplay:10.37,2013-04-08 23:29:00,
2013-04-08 18:34:00,70.0,59.0,29.83,South,179,11.5,11.5,68,0.00,CLR,,0.04,WeatherDisplay:10.37,2013-04-08 23:34:00,
2013-04-08 18:39:00,69.9,58.9,29.83,SSW,193,6.9,6.9,68,0.00,CLR,,0.04,WeatherDisplay:10.37,2013-04-08 23:39:00,
2013-04-08 18:45:00,69.7,59.1,29.83,SSW,203,5.8,5.8,69,0.00,CLR,,0.04,WeatherDisplay:10.37,2013-04-08 23:45:00,
2013-04-08 18:50:00,69.6,59.0,29.83,SW,215,10.4,10.4,69,0.00,CLR,,0.04,WeatherDisplay:10.37,2013-04-08 23:50:00,
2013-04-08 18:55:00,69.5,58.9,29.84,SW,218,11.5,11.5,69,0.00,CLR,,0.04,WeatherDisplay:10.37,2013-04-08 23:55:00,
2013-04-08 19:01:00,69.4,58.8,29.84,SSW,194,6.9,6.9,69,0.00,CLR,,0.04,WeatherDisplay:10.37,2013-04-09 00:01:00,
2013-04-08 19:06:00,69.2,59.0,29.84,SSW,196,1.2,0.0,70,0.00,CLR,,0.04,WeatherDisplay:10.37,2013-04-09 00:06:00,
2013-04-08 19:11:00,69.1,58.9,29.84,South,177,5.8,5.8,70,0.00,CLR,,0.04,WeatherDisplay:10.37,2013-04-09 00:11:00,
2013-04-08 19:17:00,68.9,58.7,29.84,SSE,164,2.0,2.0,70,0.00,CLR,,0.04,WeatherDisplay:10.37,2013-04-09 00:17:00,
2013-04-08 19:22:00,68.7,58.5,29.85,SW,219,4.6,4.6,70,0.00,CLR,,0.04,WeatherDisplay:10.37,2013-04-09 00:22:00,
2013-04-08 19:27:00,68.5,58.7,29.84,SSW,205,6.9,6.9,71,0.00,CLR,,0.04,WeatherDisplay:10.37,2013-04-09 00:27:00,
2013-04-08 19:32:00,68.2,58.4,29.84,South,177,4.6,4.6,71,0.00,CLR,,0.04,WeatherDisplay:10.37,2013-04-09 00:32:00,
2013-04-08 19:37:00,68.0,58.2,29.84,South,180,2.3,0.0,71,0.00,CLR,,0.04,WeatherDisplay:10.37,2013-04-09 00:37:00,
2013-04-08 19:42:00,67.8,58.1,29.85,South,188,3.5,3.5,71,0.00,CLR,,0.04,WeatherDisplay:10.37,2013-04-09 00:42:00,
2013-04-08 19:47:00,67.7,58.3,29.85,SW,225,9.2,9.2,72,0.00,CLR,,0.04,WeatherDisplay:10.37,2013-04-09 00:47:00,
2013-04-08 19:53:00,67.7,58.3,29.85,South,175,9.2,9.2,72,0.00,CLR,,0.04,WeatherDisplay:10.37,2013-04-09 00:53:00,
2013-04-08 19:58:00,67.5,58.2,29.85,SSW,196,3.5,3.5,72,0.00,CLR,,0.04,WeatherDisplay:10.37,2013-04-09 00:58:00,
2013-04-08 20:03:00,67.4,58.1,29.85,South,181,5.8,5.8,72,0.00,CLR,,0.04,WeatherDisplay:10.37,2013-04-09 01:03:00,
2013-04-08 20:08:00,67.2,57.9,29.85,SSW,192,4.6,4.6,72,0.00,CLR,,0.04,WeatherDisplay:10.37,2013-04-09 01:08:00,
2013-04-08 20:13:00,66.9,58.0,29.85,South,184,4.6,4.6,73,0.00,CLR,,0.04,WeatherDisplay:10.37,2013-04-09 01:13:00,
2013-04-08 20:18:00,66.7,57.8,29.86,South,184,9.2,9.2,73,0.00,CLR,,0.04,WeatherDisplay:10.37,2013-04-09 01:18:00,
2013-04-08 20:23:00,66.5,57.6,29.86,SW,229,3.5,3.5,73,0.00,CLR,,0.04,WeatherDisplay:10.37,2013-04-09 01:23:00,
2013-04-08 20:29:00,66.4,57.9,29.86,SSE,167,5.8,5.8,74,0.00,CLR,,0.04,WeatherDisplay:10.37,2013-04-09 01:29:00,
2013-04-08 20:34:00,66.3,57.8,29.86,South,187,3.5,3.5,74,0.00,CLR,,0.04,WeatherDisplay:10.37,2013-04-09 01:34:00,
2013-04-08 20:40:00,66.2,57.7,29.86,South,186,0.0,0.9,74,0.00,CLR,,0.04,WeatherDisplay:10.37,2013-04-09 01:40:00,
2013-04-08 20:45:00,66.0,57.5,29.86,South,178,5.8,5.8,74,0.00,CLR,,0.04,WeatherDisplay:10.37,2013-04-09 01:45:00,
2013-04-08 20:50:00,65.8,57.3,29.86,South,179,3.5,3.5,74,0.00,CLR,,0.04,WeatherDisplay:10.37,2013-04-09 01:50:00,
2013-04-08 20:55:00,65.7,57.6,29.86,SSW,196,4.6,4.6,75,0.00,CLR,,0.04,WeatherDisplay:10.37,2013-04-09 01:55:00,
2013-04-08 21:00:00,65.7,57.6,29.87,SSW,207,6.9,6.9,75,0.00,CLR,,0.04,WeatherDisplay:10.37,2013-04-09 02:00:00,
2013-04-08 21:05:00,65.6,57.5,29.87,South,186,5.8,5.8,75,0.00,CLR,,0.04,WeatherDisplay:10.37,2013-04-09 02:05:00,
2013-04-08 21:10:00,65.5,57.4,29.87,SW,219,4.6,4.6,75,0.00,CLR,,0.04,WeatherDisplay:10.37,2013-04-09 02:10:00,
2013-04-08 21:15:00,65.4,57.3,29.87,South,181,3.5,3.5,75,0.00,CLR,,0.04,WeatherDisplay:10.37,2013-04-09 02:15:00,
2013-04-08 21:21:00,65.3,57.2,29.87,SSW,198,4.0,4.0,75,0.00,CLR,,0.04,WeatherDisplay:10.37,2013-04-09 02:21:00,
2013-04-08 21:26:00,65.2,57.1,29.87,South,171,4.6,4.6,75,0.00,CLR,,0.04,WeatherDisplay:10.37,2013-04-09 02:26:00,
2013-04-08 21:31:00,65.1,57.3,29.87,SSE,167,0.0,0.0,76,0.00,CLR,,0.04,WeatherDisplay:10.37,2013-04-09 02:31:00,
2013-04-08 21:37:00,65.1,57.3,29.87,South,176,4.6,4.6,76,0.00,CLR,,0.04,WeatherDisplay:10.37,2013-04-09 02:37:00,
2013-04-08 21:42:00,65.0,57.2,29.87,SSW,194,4.6,4.6,76,0.00,CLR,,0.04,WeatherDisplay:10.37,2013-04-09 02:42:00,
2013-04-08 21:48:00,64.9,57.2,29.88,South,190,0.0,0.0,76,0.00,CLR,,0.04,WeatherDisplay:10.37,2013-04-09 02:48:00,
2013-04-08 21:53:00,64.8,57.1,29.89,South,191,0.0,0.0,76,0.00,CLR,,0.04,WeatherDisplay:10.37,2013-04-09 02:53:00,
2013-04-08 21:58:00,64.7,57.0,29.89,South,191,0.0,0.0,76,0.00,CLR,,0.04,WeatherDisplay:10.37,2013-04-09 02:58:00,
2013-04-08 22:03:00,64.5,56.8,29.90,SSW,192,0.0,0.0,76,0.00,CLR,,0.04,WeatherDisplay:10.37,2013-04-09 03:03:00,
2013-04-08 22:09:00,64.3,56.6,29.89,South,191,0.0,0.0,76,0.00,CLR,,0.04,WeatherDisplay:10.37,2013-04-09 03:09:00,
2013-04-08 22:14:00,64.2,56.5,29.90,South,191,0.0,0.0,76,0.00,CLR,,0.04,WeatherDisplay:10.37,2013-04-09 03:14:00,
2013-04-08 22:19:00,64.1,56.7,29.90,South,191,0.0,0.0,77,0.00,CLR,,0.04,WeatherDisplay:10.37,2013-04-09 03:19:00,
2013-04-08 22:24:00,63.6,56.3,29.90,SSW,192,0.0,0.0,77,0.00,CLR,,0.04,WeatherDisplay:10.37,2013-04-09 03:24:00,
2013-04-08 22:30:00,62.8,55.8,29.89,South,178,0.0,0.0,78,0.00,CLR,,0.04,WeatherDisplay:10.37,2013-04-09 03:30:00,
2013-04-08 22:35:00,62.5,55.9,29.90,SSE,161,0.0,0.0,79,0.00,CLR,,0.04,WeatherDisplay:10.37,2013-04-09 03:35:00,
2013-04-08 22:40:00,62.5,55.9,29.90,SSE,148,0.0,0.0,79,0.00,CLR,,0.04,WeatherDisplay:10.37,2013-04-09 03:40:00,
2013-04-08 22:45:00,62.4,55.8,29.90,SSE,165,2.0,0.0,79,0.00,CLR,,0.04,WeatherDisplay:10.37,2013-04-09 03:45:00,
2013-04-08 22:50:00,62.4,55.8,29.90,SSE,161,0.0,0.0,79,0.00,CLR,,0.04,WeatherDisplay:10.37,2013-04-09 03:50:00,
2013-04-08 22:55:00,62.5,55.9,29.90,SSE,167,0.0,0.0,79,0.00,CLR,,0.04,WeatherDisplay:10.37,2013-04-09 03:55:00,
2013-04-08 23:00:00,62.4,55.8,29.90,SSE,160,0.0,0.0,79,0.00,CLR,,0.04,WeatherDisplay:10.37,2013-04-09 04:00:00,
2013-04-08 23:01:00,62.4,55.8,29.90,SSE,159,0.0,0.0,79,0.00,CLR,,0.04,WeatherDisplay:10.37,2013-04-09 04:01:00,
2013-04-08 23:02:00,62.4,55.8,29.90,SSE,161,2.0,0.0,79,0.00,CLR,,0.04,WeatherDisplay:10.37,2013-04-09 04:02:00,
2013-04-08 23:07:00,62.4,55.8,29.90,SE,139,3.5,3.5,79,0.00,CLR,,0.04,WeatherDisplay:10.37,2013-04-09 04:07:00,
2013-04-08 23:12:00,62.5,55.9,29.90,SSE,150,0.0,0.0,79,0.00,CLR,,0.04,WeatherDisplay:10.37,2013-04-09 04:12:00,
2013-04-08 23:18:00,62.5,55.9,29.91,SSE,150,0.0,0.0,79,0.00,CLR,,0.04,WeatherDisplay:10.37,2013-04-09 04:18:00,
2013-04-08 23:23:00,62.4,55.8,29.91,SSE,161,0.0,0.0,79,0.00,CLR,,0.04,WeatherDisplay:10.37,2013-04-09 04:23:00,
2013-04-08 23:28:00,62.4,55.8,29.91,SSE,160,3.0,3.0,79,0.00,CLR,,0.04,WeatherDisplay:10.37,2013-04-09 04:28:00,
2013-04-08 23:33:00,62.4,55.8,29.91,SSE,163,0.0,0.0,79,0.00,CLR,,0.04,WeatherDisplay:10.37,2013-04-09 04:33:00,
2013-04-08 23:38:00,62.3,55.7,29.91,SSE,164,0.0,0.0,79,0.00,CLR,,0.04,WeatherDisplay:10.37,2013-04-09 04:38:00,
2013-04-08 23:44:00,62.1,55.5,29.91,SSE,164,0.0,0.0,79,0.00,CLR,,0.04,WeatherDisplay:10.37,2013-04-09 04:44:00,
2013-04-08 23:49:00,62.0,55.4,29.91,SSE,165,0.0,0.0,79,0.00,CLR,,0.04,WeatherDisplay:10.37,2013-04-09 04:49:00,
2013-04-08 23:54:00,61.9,55.3,29.91,SSE,164,0.0,0.0,79,0.00,CLR,,0.04,WeatherDisplay:10.37,2013-04-09 04:54:00,
2013-04-08 23:59:00,61.8,55.2,29.91,SSE,164,0.0,0.0,79,0.00,CLR,,0.04,WeatherDisplay:10.37,2013-04-09 04:59:00,